Tropical Cyclones
[Index]
Main Index Home Page Stock Weather Photos Extreme Storms Discussion Storm News and Storm Chasing Reports Tropical Cyclones / Hurricanes / Typhoons Weather Data and Links Wild Fires / Bushfires Weather Observation Techniques Weather Picture Catalogue Tornado Pictures and Reports Stock Video Footage and DVDs for sale
Season 1994-1995 Tropical Cyclone BOBBY Track Map
Season 1994-1995 Summaries: [BoM-AU] [JTWC-AU] [JTWC-SIO] [JTWC-SPAC] [JTWC-SH]
<<- Previous TC | BoM 1994-1995 Season | Next TC ->>

click for intensity scale information  Lat/long Grid: Show Hide

 Date Labels: Show Hide

Bureau of Meteorology Tropical Cyclone Data

Name: BOBBY
Number: 773 / 199495_02

19 Feb 1995 00:00 UTC to 27 Feb 1995 06:00 UTC

    date/time    lat    long    hPa   cat  kts
1995-02-19 00   11.0   134.0   1006                     
1995-02-19 06   11.5   132.7   1005         19          
1995-02-19 12   12.0   131.3   1005         19          
1995-02-19 18   12.5   130.0   1005         19          
1995-02-20 00   13.0   128.7   1005         19          
1995-02-20 06   13.5   127.3   1005         19          
1995-02-20 12   14.0   125.8   1005         19          
1995-02-20 18   14.5   124.3   1003         21          
1995-02-21 00   15.0   123.2   1000         27          
1995-02-21 06   15.5   122.2   1000         27          
1995-02-21 12   15.9   121.3    998         29          
1995-02-21 15   16.1   120.8    995    1    35          
1995-02-21 18   16.3   120.3    990    1    41          
1995-02-21 21   16.5   119.9    990    1    41          
1995-02-22 00   16.6   119.5    985    2    47          
1995-02-22 03   16.8   119.1    980    2    54          
1995-02-22 06   17.1   118.7    980    2    54          
1995-02-22 09   17.3   118.4    975    2    60          
1995-02-22 12   17.5   117.9    975    2    60          
1995-02-22 15   17.8   117.6    970    3    66          
1995-02-22 18   18.1   117.2    965    3    70          
1995-02-22 21   18.4   116.8    960    3    76          
1995-02-23 00   18.4   116.5    955    4    80          
1995-02-23 03   18.7   116.3    955    4    80          
1995-02-23 06   19.0   116.1    955    4    80          
1995-02-23 09   19.2   115.9    955    4    80          
1995-02-23 12   19.4   115.8    955    4    80          
1995-02-23 15   19.4   115.8    955    4    80          
1995-02-23 18   19.7   115.7    955    4    80          
1995-02-23 21   20.0   115.8    955    4    80          
1995-02-24 00   20.2   115.8    950    4    84          
1995-02-24 03   20.5   115.9    940    4    93          
1995-02-24 06   21.0   115.7    930    4    101          
1995-02-24 09   21.3   115.6    925    5    105          
1995-02-24 12   21.4   115.4    930    4    101          
1995-02-24 15   21.5   115.3    940    4    93          
1995-02-24 18   21.7   115.2    945    4    89          
1995-02-24 21   21.8   115.1    950    4    84          
1995-02-25 00   22.0   115.2    955    4    80          
1995-02-25 03   22.4   115.2    960    3    76          
1995-02-25 06   22.8   115.2    970    3    66          
1995-02-25 09   23.2   115.2    970    3    66          
1995-02-25 12   23.6   115.3    970    3    66          
1995-02-25 15   24.0   115.4    975    2    60          
1995-02-25 18   24.4   115.5    975    2    60          
1995-02-25 21   25.0   115.7    980    2    54          
1995-02-26 00   25.5   115.8    980    2    54          
1995-02-26 06   26.5   116.2    985    2    47          
1995-02-26 12   27.3   117.2    985    2    47          
1995-02-26 18   28.1   118.7    985    2    47          
1995-02-27 00   28.8   120.3    992    1    39          
1995-02-27 06   29.2   121.0    996         33          
Winds are 10-min average.

Tropical cyclone tracks developed by Michael Bath using data from the Bureau of Meteorology and Google Maps.


[Australian Severe Weather index] [Copyright Notice] [Email Contacts] [Search This Site] [Privacy Policy]
Document: tropical_cyclone_bobby.htm Updated: 30 May 2013